createdAt,value
2018-06-16T00:00:08.645Z,4.80
2018-06-16T00:02:40.516Z,5.20
2018-06-16T00:05:15.890Z,5.03
2018-06-16T00:07:47.858Z,4.40
2018-06-16T00:10:21.333Z,5.03
2018-06-16T00:12:53.416Z,5.03
2018-06-16T00:15:25.846Z,5.30
2018-06-16T00:17:57.979Z,5.10
2018-06-16T00:20:30.565Z,4.70
2018-06-16T00:23:02.107Z,5.17
2018-06-16T00:25:33.617Z,4.47
2018-06-16T00:28:05.459Z,5.53
2018-06-16T00:30:37.406Z,4.90
2018-06-16T00:33:09.586Z,5.27
2018-06-16T00:35:41.821Z,4.97
2018-06-16T00:38:13.912Z,4.97
2018-06-16T00:40:46.078Z,5.27
2018-06-16T00:43:17.960Z,5.00
2018-06-16T00:45:49.985Z,5.13
2018-06-16T00:48:21.451Z,5.33
2018-06-16T00:50:53.509Z,5.33
2018-06-16T00:53:24.947Z,5.00
2018-06-16T00:55:57.113Z,4.87
2018-06-16T00:58:29.620Z,5.00
2018-06-16T01:01:01.934Z,5.37
2018-06-16T01:03:34.027Z,5.27
2018-06-16T01:06:06.492Z,5.17
2018-06-16T01:08:38.569Z,5.93
2018-06-16T01:11:10.119Z,5.33
2018-06-16T01:13:41.999Z,5.30
2018-06-16T01:16:13.731Z,5.63
2018-06-16T01:18:45.543Z,5.83
2018-06-16T01:21:17.472Z,5.63
2018-06-16T01:23:48.840Z,5.67
2018-06-16T01:26:21.022Z,6.30
2018-06-16T01:28:53.246Z,5.80
2018-06-16T01:31:25.547Z,5.73
2018-06-16T01:33:57.811Z,6.07
2018-06-16T01:36:30.489Z,5.40
2018-06-16T01:39:01.834Z,6.20
2018-06-16T01:41:33.945Z,5.83
2018-06-16T01:44:06.185Z,5.80
2018-06-16T01:46:38.232Z,5.87
2018-06-16T01:49:10.285Z,6.00
2018-06-16T01:51:42.153Z,5.83
2018-06-16T01:54:14.012Z,5.90
2018-06-16T01:56:46.162Z,5.77
2018-06-16T01:59:17.532Z,5.53
2018-06-16T02:01:49.383Z,6.43
2018-06-16T02:04:21.737Z,5.80
2018-06-16T02:06:53.830Z,5.67
2018-06-16T02:09:25.896Z,6.10
2018-06-16T02:11:57.854Z,5.60
2018-06-16T02:14:30.434Z,5.80
2018-06-16T02:17:02.390Z,6.17
2018-06-16T02:19:34.252Z,6.03
2018-06-16T02:22:06.581Z,6.17
2018-06-16T02:24:45.745Z,5.73
2018-06-16T02:27:17.653Z,6.33
